sensor_id;sensor_type;location;lat;lon;timestamp;temperature;humidity
22607;DHT22;11470;20.968;105.834;2024-01-25T00:00:02;10.20;99.90
22607;DHT22;11470;20.968;105.834;2024-01-25T00:05:07;10.20;99.90
22607;DHT22;11470;20.968;105.834;2024-01-25T00:10:12;10.40;99.90
22607;DHT22;11470;20.968;105.834;2024-01-25T00:15:18;10.30;99.90
22607;DHT22;11470;20.968;105.834;2024-01-25T00:20:26;10.40;99.90
22607;DHT22;11470;20.968;105.834;2024-01-25T00:25:33;10.30;99.90
22607;DHT22;11470;20.968;105.834;2024-01-25T00:30:40;10.40;99.90
22607;DHT22;11470;20.968;105.834;2024-01-25T00:35:46;10.30;99.90
22607;DHT22;11470;20.968;105.834;2024-01-25T00:40:53;10.40;99.90
22607;DHT22;11470;20.968;105.834;2024-01-25T00:46:01;10.30;99.90
22607;DHT22;11470;20.968;105.834;2024-01-25T00:51:15;10.50;99.90
22607;DHT22;11470;20.968;105.834;2024-01-25T00:56:21;10.50;99.90
22607;DHT22;11470;20.968;105.834;2024-01-25T01:01:31;10.50;99.90
22607;DHT22;11470;20.968;105.834;2024-01-25T01:06:37;10.70;99.90
22607;DHT22;11470;20.968;105.834;2024-01-25T01:11:45;10.70;99.90
22607;DHT22;11470;20.968;105.834;2024-01-25T01:16:50;10.60;99.90
22607;DHT22;11470;20.968;105.834;2024-01-25T01:21:57;10.70;99.90
22607;DHT22;11470;20.968;105.834;2024-01-25T01:27:05;10.80;99.90
22607;DHT22;11470;20.968;105.834;2024-01-25T01:32:11;10.80;99.90
22607;DHT22;11470;20.968;105.834;2024-01-25T01:37:17;10.80;99.90
22607;DHT22;11470;20.968;105.834;2024-01-25T01:42:23;10.90;99.90
22607;DHT22;11470;20.968;105.834;2024-01-25T01:47:30;11.00;99.90
22607;DHT22;11470;20.968;105.834;2024-01-25T01:52:36;11.10;99.90
22607;DHT22;11470;20.968;105.834;2024-01-25T01:57:41;11.30;99.90
22607;DHT22;11470;20.968;105.834;2024-01-25T02:02:47;11.50;99.90
22607;DHT22;11470;20.968;105.834;2024-01-25T02:07:52;11.70;99.90
22607;DHT22;11470;20.968;105.834;2024-01-25T02:12:58;11.80;99.90
22607;DHT22;11470;20.968;105.834;2024-01-25T02:18:04;12.00;99.90
22607;DHT22;11470;20.968;105.834;2024-01-25T02:23:09;12.00;99.90
22607;DHT22;11470;20.968;105.834;2024-01-25T02:28:17;12.20;99.90
22607;DHT22;11470;20.968;105.834;2024-01-25T02:33:22;12.20;99.90
22607;DHT22;11470;20.968;105.834;2024-01-25T02:38:28;12.20;99.90
22607;DHT22;11470;20.968;105.834;2024-01-25T02:43:34;12.40;99.90
22607;DHT22;11470;20.968;105.834;2024-01-25T02:48:52;12.60;99.90
22607;DHT22;11470;20.968;105.834;2024-01-25T02:53:58;12.60;99.90
22607;DHT22;11470;20.968;105.834;2024-01-25T02:59:05;12.60;99.90
22607;DHT22;11470;20.968;105.834;2024-01-25T03:04:11;12.50;99.90
22607;DHT22;11470;20.968;105.834;2024-01-25T03:09:17;12.70;99.90
22607;DHT22;11470;20.968;105.834;2024-01-25T03:14:25;12.80;99.90
22607;DHT22;11470;20.968;105.834;2024-01-25T03:19:32;12.80;99.90
22607;DHT22;11470;20.968;105.834;2024-01-25T03:24:38;12.90;99.90
22607;DHT22;11470;20.968;105.834;2024-01-25T03:29:44;13.10;99.90
22607;DHT22;11470;20.968;105.834;2024-01-25T03:34:49;13.30;99.90
22607;DHT22;11470;20.968;105.834;2024-01-25T03:39:55;13.60;99.90
22607;DHT22;11470;20.968;105.834;2024-01-25T03:45:01;13.40;99.90
22607;DHT22;11470;20.968;105.834;2024-01-25T03:50:06;13.30;99.90
22607;DHT22;11470;20.968;105.834;2024-01-25T03:55:12;13.30;99.90
22607;DHT22;11470;20.968;105.834;2024-01-25T04:00:17;13.20;99.90
22607;DHT22;11470;20.968;105.834;2024-01-25T04:05:22;13.10;99.90
22607;DHT22;11470;20.968;105.834;2024-01-25T04:10:28;13.00;99.90
22607;DHT22;11470;20.968;105.834;2024-01-25T04:15:33;13.20;99.90
22607;DHT22;11470;20.968;105.834;2024-01-25T04:20:41;13.30;99.90
22607;DHT22;11470;20.968;105.834;2024-01-25T04:25:46;13.30;99.90
22607;DHT22;11470;20.968;105.834;2024-01-25T04:30:52;13.40;99.90
22607;DHT22;11470;20.968;105.834;2024-01-25T04:35:58;13.50;99.90
22607;DHT22;11470;20.968;105.834;2024-01-25T04:41:03;13.50;99.90
22607;DHT22;11470;20.968;105.834;2024-01-25T04:46:12;13.60;99.90
22607;DHT22;11470;20.968;105.834;2024-01-25T04:51:17;13.60;99.90
22607;DHT22;11470;20.968;105.834;2024-01-25T04:56:25;13.50;99.90
22607;DHT22;11470;20.968;105.834;2024-01-25T05:01:30;13.60;99.90
22607;DHT22;11470;20.968;105.834;2024-01-25T05:06:35;13.70;99.90
22607;DHT22;11470;20.968;105.834;2024-01-25T05:11:42;14.00;99.90
22607;DHT22;11470;20.968;105.834;2024-01-25T05:16:47;14.20;99.90
22607;DHT22;11470;20.968;105.834;2024-01-25T05:21:52;14.30;99.90
22607;DHT22;11470;20.968;105.834;2024-01-25T05:26:57;14.20;99.90
22607;DHT22;11470;20.968;105.834;2024-01-25T05:32:02;14.60;99.90
22607;DHT22;11470;20.968;105.834;2024-01-25T05:37:07;15.00;99.90
22607;DHT22;11470;20.968;105.834;2024-01-25T05:42:13;14.90;99.90
22607;DHT22;11470;20.968;105.834;2024-01-25T05:47:18;14.80;99.90
22607;DHT22;11470;20.968;105.834;2024-01-25T05:52:23;14.90;99.90
22607;DHT22;11470;20.968;105.834;2024-01-25T05:57:29;14.80;99.90
22607;DHT22;11470;20.968;105.834;2024-01-25T06:02:35;15.20;99.90
22607;DHT22;11470;20.968;105.834;2024-01-25T06:07:40;15.10;99.90
22607;DHT22;11470;20.968;105.834;2024-01-25T06:12:46;15.40;99.90
22607;DHT22;11470;20.968;105.834;2024-01-25T06:17:52;15.50;99.90
22607;DHT22;11470;20.968;105.834;2024-01-25T06:22:59;15.30;99.90
22607;DHT22;11470;20.968;105.834;2024-01-25T06:28:06;15.10;99.90
22607;DHT22;11470;20.968;105.834;2024-01-25T06:33:14;15.10;99.90
22607;DHT22;11470;20.968;105.834;2024-01-25T06:38:31;15.20;99.90
22607;DHT22;11470;20.968;105.834;2024-01-25T06:43:38;15.30;99.90
22607;DHT22;11470;20.968;105.834;2024-01-25T06:48:45;15.30;99.90
22607;DHT22;11470;20.968;105.834;2024-01-25T06:53:50;15.50;99.90
22607;DHT22;11470;20.968;105.834;2024-01-25T06:58:56;15.80;99.90
22607;DHT22;11470;20.968;105.834;2024-01-25T07:04:01;15.70;99.90
22607;DHT22;11470;20.968;105.834;2024-01-25T07:09:10;15.70;99.90
22607;DHT22;11470;20.968;105.834;2024-01-25T07:14:15;15.50;99.90
22607;DHT22;11470;20.968;105.834;2024-01-25T07:19:21;15.30;99.90
22607;DHT22;11470;20.968;105.834;2024-01-25T07:24:34;15.20;99.90
22607;DHT22;11470;20.968;105.834;2024-01-25T07:29:39;15.00;99.90
22607;DHT22;11470;20.968;105.834;2024-01-25T07:34:45;15.00;99.90
22607;DHT22;11470;20.968;105.834;2024-01-25T07:39:51;15.00;99.90
22607;DHT22;11470;20.968;105.834;2024-01-25T07:45:02;14.80;99.90
22607;DHT22;11470;20.968;105.834;2024-01-25T07:50:07;14.70;99.90
22607;DHT22;11470;20.968;105.834;2024-01-25T07:55:13;14.90;99.90
22607;DHT22;11470;20.968;105.834;2024-01-25T08:00:19;14.60;99.90
22607;DHT22;11470;20.968;105.834;2024-01-25T08:05:24;14.20;99.90
22607;DHT22;11470;20.968;105.834;2024-01-25T08:10:47;14.20;99.90
22607;DHT22;11470;20.968;105.834;2024-01-25T08:16:04;14.10;99.90
22607;DHT22;11470;20.968;105.834;2024-01-25T08:21:25;14.00;99.90
22607;DHT22;11470;20.968;105.834;2024-01-25T08:26:39;14.00;99.90
22607;DHT22;11470;20.968;105.834;2024-01-25T08:32:01;13.90;99.90
22607;DHT22;11470;20.968;105.834;2024-01-25T08:37:07;13.80;99.90
22607;DHT22;11470;20.968;105.834;2024-01-25T08:42:20;13.60;99.90
22607;DHT22;11470;20.968;105.834;2024-01-25T08:47:36;13.50;99.90
22607;DHT22;11470;20.968;105.834;2024-01-25T08:53:04;13.30;99.90
22607;DHT22;11470;20.968;105.834;2024-01-25T08:58:22;13.40;99.90
22607;DHT22;11470;20.968;105.834;2024-01-25T09:03:28;13.30;99.90
22607;DHT22;11470;20.968;105.834;2024-01-25T09:08:39;13.30;99.90
22607;DHT22;11470;20.968;105.834;2024-01-25T09:13:45;13.40;99.90
22607;DHT22;11470;20.968;105.834;2024-01-25T09:18:53;13.40;99.90
22607;DHT22;11470;20.968;105.834;2024-01-25T09:23:59;13.30;99.90
22607;DHT22;11470;20.968;105.834;2024-01-25T09:29:05;13.30;99.90
22607;DHT22;11470;20.968;105.834;2024-01-25T09:34:11;13.20;99.90
22607;DHT22;11470;20.968;105.834;2024-01-25T09:39:21;13.10;99.90
22607;DHT22;11470;20.968;105.834;2024-01-25T09:44:31;13.30;99.90
22607;DHT22;11470;20.968;105.834;2024-01-25T09:49:42;13.20;99.90
22607;DHT22;11470;20.968;105.834;2024-01-25T09:54:53;13.10;99.90
22607;DHT22;11470;20.968;105.834;2024-01-25T10:00:05;13.00;99.90
22607;DHT22;11470;20.968;105.834;2024-01-25T10:05:18;12.80;99.90
22607;DHT22;11470;20.968;105.834;2024-01-25T10:10:32;12.70;99.90
22607;DHT22;11470;20.968;105.834;2024-01-25T10:15:41;12.80;99.90
22607;DHT22;11470;20.968;105.834;2024-01-25T10:20:50;12.80;99.90
22607;DHT22;11470;20.968;105.834;2024-01-25T10:26:00;12.70;99.90
22607;DHT22;11470;20.968;105.834;2024-01-25T10:31:07;12.70;99.90
22607;DHT22;11470;20.968;105.834;2024-01-25T10:36:14;12.70;99.90
22607;DHT22;11470;20.968;105.834;2024-01-25T10:41:24;12.60;99.90
22607;DHT22;11470;20.968;105.834;2024-01-25T10:46:32;12.50;99.90
22607;DHT22;11470;20.968;105.834;2024-01-25T10:51:40;12.60;99.90
22607;DHT22;11470;20.968;105.834;2024-01-25T10:56:47;12.60;99.90
22607;DHT22;11470;20.968;105.834;2024-01-25T11:01:54;12.60;99.90
22607;DHT22;11470;20.968;105.834;2024-01-25T11:07:09;12.70;99.90
22607;DHT22;11470;20.968;105.834;2024-01-25T11:12:19;12.60;99.90
22607;DHT22;11470;20.968;105.834;2024-01-25T11:17:25;12.50;99.90
22607;DHT22;11470;20.968;105.834;2024-01-25T11:22:36;12.50;99.90
22607;DHT22;11470;20.968;105.834;2024-01-25T11:27:41;12.50;99.90
22607;DHT22;11470;20.968;105.834;2024-01-25T11:32:47;12.60;99.90
22607;DHT22;11470;20.968;105.834;2024-01-25T11:37:53;12.80;99.90
22607;DHT22;11470;20.968;105.834;2024-01-25T11:42:58;12.70;99.90
22607;DHT22;11470;20.968;105.834;2024-01-25T11:48:04;12.70;99.90
22607;DHT22;11470;20.968;105.834;2024-01-25T11:53:10;12.70;99.90
22607;DHT22;11470;20.968;105.834;2024-01-25T11:58:15;12.80;99.90
22607;DHT22;11470;20.968;105.834;2024-01-25T12:03:21;12.80;99.90
22607;DHT22;11470;20.968;105.834;2024-01-25T12:08:26;12.80;99.90
22607;DHT22;11470;20.968;105.834;2024-01-25T12:13:34;12.80;99.90
22607;DHT22;11470;20.968;105.834;2024-01-25T12:18:41;12.70;99.90
22607;DHT22;11470;20.968;105.834;2024-01-25T12:23:48;12.70;99.90
22607;DHT22;11470;20.968;105.834;2024-01-25T12:28:54;12.80;99.90
22607;DHT22;11470;20.968;105.834;2024-01-25T12:33:59;12.70;99.90
22607;DHT22;11470;20.968;105.834;2024-01-25T12:39:05;12.70;99.90
22607;DHT22;11470;20.968;105.834;2024-01-25T12:44:11;12.60;99.90
22607;DHT22;11470;20.968;105.834;2024-01-25T12:49:16;12.60;99.90
22607;DHT22;11470;20.968;105.834;2024-01-25T12:54:22;12.70;99.90
22607;DHT22;11470;20.968;105.834;2024-01-25T12:59:27;12.80;99.90
22607;DHT22;11470;20.968;105.834;2024-01-25T13:04:32;12.70;99.90
22607;DHT22;11470;20.968;105.834;2024-01-25T13:09:37;12.70;99.90
22607;DHT22;11470;20.968;105.834;2024-01-25T13:14:44;12.70;99.90
22607;DHT22;11470;20.968;105.834;2024-01-25T13:19:49;12.70;99.90
22607;DHT22;11470;20.968;105.834;2024-01-25T13:24:54;12.70;99.90
22607;DHT22;11470;20.968;105.834;2024-01-25T13:30:00;12.60;99.90
22607;DHT22;11470;20.968;105.834;2024-01-25T13:35:07;12.70;99.90
22607;DHT22;11470;20.968;105.834;2024-01-25T13:40:12;12.70;99.90
22607;DHT22;11470;20.968;105.834;2024-01-25T13:45:17;12.60;99.90
22607;DHT22;11470;20.968;105.834;2024-01-25T13:50:22;12.60;99.90
22607;DHT22;11470;20.968;105.834;2024-01-25T13:55:28;12.70;99.90
22607;DHT22;11470;20.968;105.834;2024-01-25T14:00:33;12.60;99.90
22607;DHT22;11470;20.968;105.834;2024-01-25T14:05:38;12.70;99.90
22607;DHT22;11470;20.968;105.834;2024-01-25T14:10:43;12.60;99.90
22607;DHT22;11470;20.968;105.834;2024-01-25T14:15:48;12.60;99.90
22607;DHT22;11470;20.968;105.834;2024-01-25T14:20:54;12.60;99.90
22607;DHT22;11470;20.968;105.834;2024-01-25T14:25:59;12.70;99.90
22607;DHT22;11470;20.968;105.834;2024-01-25T14:31:04;12.60;99.90
22607;DHT22;11470;20.968;105.834;2024-01-25T14:36:10;12.60;99.90
22607;DHT22;11470;20.968;105.834;2024-01-25T14:41:16;12.60;99.90
22607;DHT22;11470;20.968;105.834;2024-01-25T14:46:21;12.60;99.90
22607;DHT22;11470;20.968;105.834;2024-01-25T14:51:26;12.50;99.90
22607;DHT22;11470;20.968;105.834;2024-01-25T14:56:31;12.50;99.90
22607;DHT22;11470;20.968;105.834;2024-01-25T15:01:36;12.50;99.90
22607;DHT22;11470;20.968;105.834;2024-01-25T15:06:45;12.50;99.90
22607;DHT22;11470;20.968;105.834;2024-01-25T15:11:50;12.50;99.90
22607;DHT22;11470;20.968;105.834;2024-01-25T15:16:55;12.50;99.90
22607;DHT22;11470;20.968;105.834;2024-01-25T15:22:00;12.40;99.90
22607;DHT22;11470;20.968;105.834;2024-01-25T15:27:05;12.40;99.90
22607;DHT22;11470;20.968;105.834;2024-01-25T15:32:11;12.30;99.90
22607;DHT22;11470;20.968;105.834;2024-01-25T15:37:16;12.40;99.90
22607;DHT22;11470;20.968;105.834;2024-01-25T15:42:22;12.40;99.90
22607;DHT22;11470;20.968;105.834;2024-01-25T15:47:32;12.50;99.90
22607;DHT22;11470;20.968;105.834;2024-01-25T15:52:37;12.50;99.90
22607;DHT22;11470;20.968;105.834;2024-01-25T15:57:43;12.50;99.90
22607;DHT22;11470;20.968;105.834;2024-01-25T16:02:49;12.40;99.90
22607;DHT22;11470;20.968;105.834;2024-01-25T16:07:55;12.50;99.90
22607;DHT22;11470;20.968;105.834;2024-01-25T16:13:01;12.50;99.90
22607;DHT22;11470;20.968;105.834;2024-01-25T16:18:06;12.40;99.90
22607;DHT22;11470;20.968;105.834;2024-01-25T16:23:12;12.20;99.90
22607;DHT22;11470;20.968;105.834;2024-01-25T16:28:18;12.20;99.90
22607;DHT22;11470;20.968;105.834;2024-01-25T16:33:23;12.10;99.90
22607;DHT22;11470;20.968;105.834;2024-01-25T16:38:28;12.10;99.90
22607;DHT22;11470;20.968;105.834;2024-01-25T16:43:36;12.00;99.90
22607;DHT22;11470;20.968;105.834;2024-01-25T16:48:41;12.20;99.90
22607;DHT22;11470;20.968;105.834;2024-01-25T16:53:46;12.20;99.90
22607;DHT22;11470;20.968;105.834;2024-01-25T16:58:51;12.10;99.90
22607;DHT22;11470;20.968;105.834;2024-01-25T17:03:56;12.20;99.90
22607;DHT22;11470;20.968;105.834;2024-01-25T17:09:02;12.00;99.90
22607;DHT22;11470;20.968;105.834;2024-01-25T17:14:10;12.00;99.90
22607;DHT22;11470;20.968;105.834;2024-01-25T17:19:14;11.90;99.90
22607;DHT22;11470;20.968;105.834;2024-01-25T17:24:20;11.90;99.90
22607;DHT22;11470;20.968;105.834;2024-01-25T17:29:25;11.90;99.90
22607;DHT22;11470;20.968;105.834;2024-01-25T17:34:30;11.90;99.90
22607;DHT22;11470;20.968;105.834;2024-01-25T17:39:35;12.00;99.90
22607;DHT22;11470;20.968;105.834;2024-01-25T17:44:41;12.10;99.90
22607;DHT22;11470;20.968;105.834;2024-01-25T17:49:46;12.00;99.90
22607;DHT22;11470;20.968;105.834;2024-01-25T17:54:52;12.20;99.90
22607;DHT22;11470;20.968;105.834;2024-01-25T17:59:57;12.20;99.90
22607;DHT22;11470;20.968;105.834;2024-01-25T18:05:02;12.00;99.90
22607;DHT22;11470;20.968;105.834;2024-01-25T18:10:07;12.00;99.90
22607;DHT22;11470;20.968;105.834;2024-01-25T18:15:12;11.90;99.90
22607;DHT22;11470;20.968;105.834;2024-01-25T18:20:19;12.00;99.90
22607;DHT22;11470;20.968;105.834;2024-01-25T18:25:25;12.00;99.90
22607;DHT22;11470;20.968;105.834;2024-01-25T18:30:30;11.80;99.90
22607;DHT22;11470;20.968;105.834;2024-01-25T18:35:35;11.80;99.90
22607;DHT22;11470;20.968;105.834;2024-01-25T18:40:41;11.80;99.90
22607;DHT22;11470;20.968;105.834;2024-01-25T18:45:46;12.00;99.90
22607;DHT22;11470;20.968;105.834;2024-01-25T18:50:52;12.00;99.90
22607;DHT22;11470;20.968;105.834;2024-01-25T18:55:58;11.90;99.90
22607;DHT22;11470;20.968;105.834;2024-01-25T19:01:04;11.90;99.90
22607;DHT22;11470;20.968;105.834;2024-01-25T19:06:10;11.90;99.90
22607;DHT22;11470;20.968;105.834;2024-01-25T19:11:15;11.80;99.90
22607;DHT22;11470;20.968;105.834;2024-01-25T19:16:20;11.80;99.90
22607;DHT22;11470;20.968;105.834;2024-01-25T19:21:25;11.80;99.90
22607;DHT22;11470;20.968;105.834;2024-01-25T19:26:31;11.80;99.90
22607;DHT22;11470;20.968;105.834;2024-01-25T19:31:36;12.00;99.90
22607;DHT22;11470;20.968;105.834;2024-01-25T19:36:42;11.90;99.90
22607;DHT22;11470;20.968;105.834;2024-01-25T19:41:47;11.80;99.90
22607;DHT22;11470;20.968;105.834;2024-01-25T19:46:53;11.90;99.90
22607;DHT22;11470;20.968;105.834;2024-01-25T19:51:58;11.90;99.90
22607;DHT22;11470;20.968;105.834;2024-01-25T19:57:03;11.80;99.90
22607;DHT22;11470;20.968;105.834;2024-01-25T20:02:09;11.70;99.90
22607;DHT22;11470;20.968;105.834;2024-01-25T20:07:14;11.70;99.90
22607;DHT22;11470;20.968;105.834;2024-01-25T20:12:22;11.70;99.90
22607;DHT22;11470;20.968;105.834;2024-01-25T20:17:27;11.70;99.90
22607;DHT22;11470;20.968;105.834;2024-01-25T20:22:32;11.60;99.90
22607;DHT22;11470;20.968;105.834;2024-01-25T20:27:39;11.60;99.90
22607;DHT22;11470;20.968;105.834;2024-01-25T20:32:44;11.60;99.90
22607;DHT22;11470;20.968;105.834;2024-01-25T20:37:49;11.60;99.90
22607;DHT22;11470;20.968;105.834;2024-01-25T20:42:55;11.60;99.90
22607;DHT22;11470;20.968;105.834;2024-01-25T20:48:00;11.70;99.90
22607;DHT22;11470;20.968;105.834;2024-01-25T20:53:06;11.60;99.90
22607;DHT22;11470;20.968;105.834;2024-01-25T20:58:11;11.60;99.90
22607;DHT22;11470;20.968;105.834;2024-01-25T21:03:17;11.60;99.90
22607;DHT22;11470;20.968;105.834;2024-01-25T21:08:22;11.70;99.90
22607;DHT22;11470;20.968;105.834;2024-01-25T21:13:28;11.70;99.90
22607;DHT22;11470;20.968;105.834;2024-01-25T21:18:33;11.70;99.90
22607;DHT22;11470;20.968;105.834;2024-01-25T21:23:40;11.60;99.90
22607;DHT22;11470;20.968;105.834;2024-01-25T21:28:45;11.70;99.90
22607;DHT22;11470;20.968;105.834;2024-01-25T21:33:50;11.90;99.90
22607;DHT22;11470;20.968;105.834;2024-01-25T21:38:59;11.70;99.90
22607;DHT22;11470;20.968;105.834;2024-01-25T21:44:07;11.90;99.90
22607;DHT22;11470;20.968;105.834;2024-01-25T21:49:18;11.70;99.90
22607;DHT22;11470;20.968;105.834;2024-01-25T21:54:23;11.70;99.90
22607;DHT22;11470;20.968;105.834;2024-01-25T21:59:29;11.70;99.90
22607;DHT22;11470;20.968;105.834;2024-01-25T22:04:36;11.70;99.90
22607;DHT22;11470;20.968;105.834;2024-01-25T22:09:45;11.60;99.90
22607;DHT22;11470;20.968;105.834;2024-01-25T22:14:50;11.70;99.90
22607;DHT22;11470;20.968;105.834;2024-01-25T22:19:56;11.60;99.90
22607;DHT22;11470;20.968;105.834;2024-01-25T22:25:06;11.60;99.90
22607;DHT22;11470;20.968;105.834;2024-01-25T22:30:13;11.60;99.90
22607;DHT22;11470;20.968;105.834;2024-01-25T22:35:22;11.60;99.90
22607;DHT22;11470;20.968;105.834;2024-01-25T22:40:28;11.70;99.90
22607;DHT22;11470;20.968;105.834;2024-01-25T22:45:35;11.60;99.90
22607;DHT22;11470;20.968;105.834;2024-01-25T22:50:40;11.60;99.90
22607;DHT22;11470;20.968;105.834;2024-01-25T22:55:45;11.50;99.90
22607;DHT22;11470;20.968;105.834;2024-01-25T23:00:50;11.60;99.90
22607;DHT22;11470;20.968;105.834;2024-01-25T23:05:55;11.60;99.90
22607;DHT22;11470;20.968;105.834;2024-01-25T23:11:01;11.80;99.90
22607;DHT22;11470;20.968;105.834;2024-01-25T23:16:06;11.70;99.90
22607;DHT22;11470;20.968;105.834;2024-01-25T23:21:12;11.80;99.90
22607;DHT22;11470;20.968;105.834;2024-01-25T23:26:18;11.80;99.90
22607;DHT22;11470;20.968;105.834;2024-01-25T23:31:23;11.80;99.90
22607;DHT22;11470;20.968;105.834;2024-01-25T23:36:28;11.70;99.90
22607;DHT22;11470;20.968;105.834;2024-01-25T23:41:33;11.70;99.90
22607;DHT22;11470;20.968;105.834;2024-01-25T23:46:39;11.80;99.90
22607;DHT22;11470;20.968;105.834;2024-01-25T23:51:44;11.80;99.90
22607;DHT22;11470;20.968;105.834;2024-01-25T23:56:50;11.80;99.90
